RYR6231 EPSC-EPKK
Flight info
| Callsign | RYR6231 |
|---|---|
| Flight time | N/A |
| Altitude | 31000 |
| Route | APNEZ DCT DENKO L619 ADVAB L623 UWLER |
| Aircraft | B737/M-VGDW/C |
Departure
| Time | 2026-04-26 14:23 |
|---|---|
| Airport | Solidarity Szczecin–Goleniów Airport (EPSC) |
Arrival
| Time | N/A |
|---|---|
| Airport | Kraków John Paul II International Airport (EPKK) |
| Time | Latitude | Longitude | Altitude | Speed | Heading |
|---|---|---|---|---|---|
| 2026-04-26 14:02 | 53.59246 | 14.89398 | 131 ft | 0 kts | 48° |
| 2026-04-26 14:12 | 53.59248 | 14.89407 | 131 ft | 2 kts | 69° |
| 2026-04-26 14:12 | 53.59239 | 14.89423 | 131 ft | 2 kts | 162° |
| 2026-04-26 14:12 | 53.59229 | 14.89402 | 131 ft | 3 kts | 245° |
| 2026-04-26 14:13 | 53.59159 | 14.89316 | 131 ft | 9 kts | 144° |
| 2026-04-26 14:13 | 53.59119 | 14.89392 | 132 ft | 9 kts | 131° |
| 2026-04-26 14:13 | 53.59081 | 14.89468 | 133 ft | 8 kts | 130° |
| 2026-04-26 14:14 | 53.59043 | 14.89540 | 134 ft | 9 kts | 131° |
| 2026-04-26 14:14 | 53.58994 | 14.89634 | 136 ft | 13 kts | 131° |
| 2026-04-26 14:14 | 53.58921 | 14.89777 | 138 ft | 19 kts | 130° |
| 2026-04-26 14:14 | 53.58822 | 14.89967 | 140 ft | 24 kts | 132° |
| 2026-04-26 14:15 | 53.58716 | 14.90172 | 143 ft | 23 kts | 131° |
| 2026-04-26 14:15 | 53.58613 | 14.90371 | 146 ft | 22 kts | 131° |
| 2026-04-26 14:15 | 53.58513 | 14.90564 | 149 ft | 22 kts | 131° |
| 2026-04-26 14:15 | 53.58415 | 14.90752 | 152 ft | 21 kts | 131° |
| 2026-04-26 14:16 | 53.58321 | 14.90934 | 155 ft | 20 kts | 130° |
| 2026-04-26 14:16 | 53.58230 | 14.91113 | 157 ft | 20 kts | 131° |
| 2026-04-26 14:16 | 53.58170 | 14.91229 | 159 ft | 19 kts | 131° |
| 2026-04-26 14:16 | 53.58084 | 14.91397 | 161 ft | 19 kts | 131° |
| 2026-04-26 14:17 | 53.58001 | 14.91558 | 163 ft | 18 kts | 131° |
| 2026-04-26 14:17 | 53.57922 | 14.91711 | 164 ft | 16 kts | 131° |
| 2026-04-26 14:17 | 53.57835 | 14.91753 | 164 ft | 15 kts | 218° |
| 2026-04-26 14:17 | 53.57778 | 14.91670 | 164 ft | 10 kts | 221° |
| 2026-04-26 14:18 | 53.57778 | 14.91569 | 165 ft | 10 kts | 311° |
| 2026-04-26 14:18 | 53.57837 | 14.91460 | 164 ft | 13 kts | 310° |
| 2026-04-26 14:18 | 53.57839 | 14.91454 | 164 ft | 0 kts | 310° |
| 2026-04-26 14:18 | 53.57841 | 14.91452 | 164 ft | 0 kts | 310° |
| 2026-04-26 14:19 | 53.57842 | 14.91450 | 164 ft | 0 kts | 310° |
| 2026-04-26 14:22 | 53.57935 | 14.91265 | 164 ft | 56 kts | 310° |
| 2026-04-26 14:22 | 53.58263 | 14.90627 | 152 ft | 86 kts | 311° |
| 2026-04-26 14:22 | 53.58748 | 14.89686 | 139 ft | 129 kts | 310° |
| 2026-04-26 14:23 | 53.59394 | 14.88399 | 368 ft | 162 kts | 307° |
| 2026-04-26 14:23 | 53.60100 | 14.86882 | 1629 ft | 165 kts | 310° |
| 2026-04-26 14:23 | 53.60844 | 14.85346 | 2876 ft | 174 kts | 313° |
| 2026-04-26 14:23 | 53.61599 | 14.83832 | 4116 ft | 169 kts | 314° |
| 2026-04-26 14:24 | 53.62443 | 14.82307 | 4642 ft | 191 kts | 313° |
| 2026-04-26 14:24 | 53.63377 | 14.80495 | 4821 ft | 217 kts | 302° |
| 2026-04-26 14:24 | 53.63687 | 14.77963 | 5306 ft | 232 kts | 263° |
| 2026-04-26 14:24 | 53.62950 | 14.75495 | 5912 ft | 247 kts | 229° |
| 2026-04-26 14:25 | 53.61661 | 14.73547 | 6817 ft | 250 kts | 223° |
| 2026-04-26 14:25 | 53.60248 | 14.71799 | 7560 ft | 260 kts | 207° |
| 2026-04-26 14:25 | 53.58434 | 14.71352 | 8188 ft | 276 kts | 173° |
| 2026-04-26 14:25 | 53.56605 | 14.72625 | 8582 ft | 296 kts | 144° |
| 2026-04-26 14:26 | 53.55039 | 14.74952 | 9204 ft | 305 kts | 132° |
| 2026-04-26 14:26 | 53.53598 | 14.77610 | 9903 ft | 311 kts | 129° |
| 2026-04-26 14:26 | 53.52164 | 14.80382 | 10568 ft | 318 kts | 128° |
| 2026-04-26 14:26 | 53.50660 | 14.83289 | 10817 ft | 341 kts | 129° |
| 2026-04-26 14:27 | 53.49061 | 14.86336 | 11288 ft | 353 kts | 129° |
| 2026-04-26 14:27 | 53.47407 | 14.89440 | 11936 ft | 360 kts | 130° |
| 2026-04-26 14:27 | 53.45717 | 14.92575 | 12635 ft | 365 kts | 130° |
| 2026-04-26 14:27 | 53.43991 | 14.95753 | 13326 ft | 372 kts | 130° |
| 2026-04-26 14:28 | 53.42229 | 14.98985 | 14036 ft | 378 kts | 130° |
| 2026-04-26 14:28 | 53.40437 | 15.02260 | 14691 ft | 384 kts | 130° |
| 2026-04-26 14:28 | 53.38616 | 15.05581 | 15387 ft | 389 kts | 130° |
| 2026-04-26 14:28 | 53.36802 | 15.08884 | 16086 ft | 393 kts | 130° |
| 2026-04-26 14:29 | 53.34937 | 15.12278 | 16761 ft | 399 kts | 130° |
| 2026-04-26 14:29 | 53.33045 | 15.15717 | 17421 ft | 405 kts | 130° |
| 2026-04-26 14:29 | 53.31121 | 15.19210 | 18102 ft | 410 kts | 130° |
| 2026-04-26 14:29 | 53.29177 | 15.22734 | 18747 ft | 415 kts | 130° |
| 2026-04-26 14:30 | 53.27207 | 15.26298 | 19345 ft | 419 kts | 131° |
| 2026-04-26 14:30 | 53.25101 | 15.29705 | 19961 ft | 424 kts | 140° |
| 2026-04-26 14:30 | 53.22758 | 15.32725 | 20590 ft | 427 kts | 143° |
| 2026-04-26 14:30 | 53.20356 | 15.35683 | 21207 ft | 431 kts | 144° |
| 2026-04-26 14:31 | 53.17929 | 15.38642 | 21806 ft | 434 kts | 144° |
| 2026-04-26 14:31 | 53.15481 | 15.41633 | 22404 ft | 438 kts | 144° |
| 2026-04-26 14:31 | 53.13021 | 15.44659 | 22989 ft | 442 kts | 144° |
| 2026-04-26 14:31 | 53.10542 | 15.47724 | 23566 ft | 445 kts | 144° |
| 2026-04-26 14:32 | 53.08051 | 15.50812 | 24084 ft | 449 kts | 144° |
| 2026-04-26 14:32 | 53.05538 | 15.53931 | 24561 ft | 452 kts | 144° |
| 2026-04-26 14:32 | 53.03014 | 15.57061 | 25051 ft | 455 kts | 144° |
| 2026-04-26 14:32 | 53.00469 | 15.60212 | 25520 ft | 457 kts | 144° |
| 2026-04-26 14:33 | 52.97910 | 15.63375 | 25979 ft | 460 kts | 145° |
| 2026-04-26 14:33 | 52.95332 | 15.66556 | 26426 ft | 463 kts | 145° |
| 2026-04-26 14:33 | 52.92735 | 15.69755 | 26872 ft | 466 kts | 145° |
| 2026-04-26 14:33 | 52.90126 | 15.72964 | 27305 ft | 469 kts | 145° |
| 2026-04-26 14:34 | 52.87494 | 15.76198 | 27735 ft | 472 kts | 145° |
| 2026-04-26 14:34 | 52.84845 | 15.79448 | 28158 ft | 475 kts | 146° |
| 2026-04-26 14:34 | 52.82184 | 15.82704 | 28577 ft | 478 kts | 146° |
| 2026-04-26 14:34 | 52.79563 | 15.85983 | 28972 ft | 481 kts | 144° |
| 2026-04-26 14:35 | 52.76935 | 15.89439 | 29371 ft | 484 kts | 143° |
| 2026-04-26 14:35 | 52.74326 | 15.92943 | 29859 ft | 484 kts | 143° |
| 2026-04-26 14:35 | 52.71720 | 15.96449 | 30436 ft | 482 kts | 143° |
| 2026-04-26 14:35 | 52.69123 | 15.99920 | 30914 ft | 480 kts | 143° |
| 2026-04-26 14:36 | 52.66524 | 16.03365 | 31279 ft | 481 kts | 144° |
| 2026-04-26 14:36 | 52.61266 | 16.10276 | 31276 ft | 483 kts | 144° |
| 2026-04-26 14:37 | 52.56049 | 16.17111 | 31273 ft | 479 kts | 144° |
| 2026-04-26 14:37 | 52.50821 | 16.23941 | 31286 ft | 481 kts | 144° |
| 2026-04-26 14:38 | 52.45574 | 16.30784 | 31277 ft | 482 kts | 144° |
| 2026-04-26 14:38 | 52.40312 | 16.37629 | 31269 ft | 483 kts | 144° |
| 2026-04-26 14:39 | 52.35047 | 16.44458 | 31270 ft | 483 kts | 144° |
| 2026-04-26 14:39 | 52.29780 | 16.51268 | 31270 ft | 483 kts | 144° |
| 2026-04-26 14:40 | 52.24511 | 16.58060 | 31266 ft | 482 kts | 144° |
| 2026-04-26 14:40 | 52.19246 | 16.64826 | 31267 ft | 481 kts | 144° |
| 2026-04-26 14:41 | 52.13986 | 16.71567 | 31269 ft | 481 kts | 144° |
| 2026-04-26 14:41 | 52.09138 | 16.79121 | 31268 ft | 484 kts | 135° |
| 2026-04-26 14:42 | 52.04515 | 16.87066 | 31263 ft | 484 kts | 135° |
| 2026-04-26 14:42 | 51.99858 | 16.94987 | 31267 ft | 485 kts | 135° |
| 2026-04-26 14:43 | 51.95166 | 17.02852 | 31260 ft | 485 kts | 136° |
| 2026-04-26 14:43 | 51.90463 | 17.10693 | 31264 ft | 486 kts | 136° |
| 2026-04-26 14:44 | 51.85743 | 17.18545 | 31257 ft | 486 kts | 136° |
| 2026-04-26 14:44 | 51.81024 | 17.26396 | 31256 ft | 487 kts | 135° |
| 2026-04-26 14:45 | 51.76342 | 17.34286 | 31254 ft | 487 kts | 135° |
| 2026-04-26 14:45 | 51.71648 | 17.42152 | 31255 ft | 487 kts | 136° |
| 2026-04-26 14:46 | 51.67079 | 17.50219 | 31256 ft | 488 kts | 131° |
| 2026-04-26 14:46 | 51.62826 | 17.58634 | 31253 ft | 488 kts | 129° |
| 2026-04-26 14:47 | 51.58565 | 17.67126 | 31253 ft | 488 kts | 130° |
| 2026-04-26 14:47 | 51.54257 | 17.75561 | 31256 ft | 488 kts | 130° |
| 2026-04-26 14:48 | 51.49922 | 17.83947 | 31249 ft | 488 kts | 130° |
| 2026-04-26 14:48 | 51.47777 | 17.88077 | 31226 ft | 475 kts | 130° |
| 2026-04-26 14:48 | 51.45691 | 17.92091 | 31226 ft | 461 kts | 130° |
| 2026-04-26 14:48 | 51.43669 | 17.95974 | 31228 ft | 448 kts | 130° |
| 2026-04-26 14:49 | 51.41699 | 17.99753 | 31219 ft | 435 kts | 130° |
| 2026-04-26 14:49 | 51.39785 | 18.03420 | 31225 ft | 423 kts | 130° |
| 2026-04-26 14:49 | 51.37926 | 18.06977 | 31218 ft | 411 kts | 131° |
| 2026-04-26 14:50 | 51.34268 | 18.13959 | 31261 ft | 411 kts | 131° |
| 2026-04-26 14:50 | 51.30574 | 18.20990 | 31258 ft | 415 kts | 131° |
| 2026-04-26 14:51 | 51.26835 | 18.28087 | 31257 ft | 419 kts | 131° |
| 2026-04-26 14:51 | 51.23069 | 18.35219 | 31251 ft | 421 kts | 131° |
| 2026-04-26 14:52 | 51.19291 | 18.42354 | 31238 ft | 421 kts | 131° |
| 2026-04-26 14:52 | 51.15522 | 18.49453 | 31242 ft | 419 kts | 131° |
| 2026-04-26 14:53 | 51.11765 | 18.56508 | 31230 ft | 417 kts | 131° |
| 2026-04-26 14:53 | 51.08023 | 18.63517 | 31232 ft | 414 kts | 131° |
| 2026-04-26 14:54 | 51.04294 | 18.70482 | 31237 ft | 413 kts | 131° |
| 2026-04-26 14:54 | 51.00592 | 18.77376 | 31241 ft | 413 kts | 131° |
| 2026-04-26 14:55 | 50.96854 | 18.84320 | 31247 ft | 415 kts | 131° |
| 2026-04-26 14:55 | 50.93091 | 18.91291 | 31245 ft | 417 kts | 131° |
| 2026-04-26 14:56 | 50.89305 | 18.98287 | 31244 ft | 419 kts | 131° |
| 2026-04-26 14:56 | 50.85742 | 19.04852 | 31241 ft | 421 kts | 131° |
| 2026-04-26 14:57 | 50.81921 | 19.11874 | 31236 ft | 421 kts | 131° |
| 2026-04-26 14:57 | 50.78092 | 19.18892 | 31231 ft | 421 kts | 131° |
| 2026-04-26 14:58 | 50.74270 | 19.25877 | 31229 ft | 420 kts | 131° |
| 2026-04-26 14:58 | 50.70448 | 19.32845 | 31222 ft | 419 kts | 131° |
| 2026-04-26 14:59 | 50.66635 | 19.39776 | 31223 ft | 418 kts | 131° |
| 2026-04-26 14:59 | 50.62827 | 19.46680 | 31220 ft | 417 kts | 131° |
| 2026-04-26 15:00 | 50.59013 | 19.53577 | 31223 ft | 417 kts | 131° |
| 2026-04-26 15:00 | 50.55197 | 19.60459 | 31221 ft | 418 kts | 131° |
| 2026-04-26 15:01 | 50.51364 | 19.67350 | 31221 ft | 419 kts | 131° |
| 2026-04-26 15:01 | 50.47524 | 19.74239 | 31215 ft | 419 kts | 132° |
| 2026-04-26 15:02 | 50.43717 | 19.81050 | 31197 ft | 412 kts | 132° |
| 2026-04-26 15:02 | 50.40558 | 19.86687 | 31135 ft | 416 kts | 132° |